Time;durP1;ratioP1;P1;durP2;ratioP2;P2;SDS_P1;SDS_P2;PMS_P1;PMS_P2;Temp;Humidity;BMP_temperature;BMP_pressure;BME280_temperature;BME280_humidity;BME280_pressure;Samples;Min_cycle;Max_cycle;Signal;HPM_P1;HPM_P2
2023/08/29 00:01:02;;;;;;;18.27;6.95;;;;;;;28.45;nan;97830.53;4883288;29;20204;-68
2023/08/29 00:03:33;;;;;;;25.20;9.27;;;;;;;28.45;nan;97830.53;4881825;29;20052;-67
2023/08/29 00:06:04;;;;;;;21.23;8.45;;;;;;;28.38;nan;97816.63;4878541;29;20060;-67
2023/08/29 00:08:34;;;;;;;20.98;8.10;;;;;;;28.41;nan;97832.28;4877164;29;20771;-67
2023/08/29 00:11:04;;;;;;;26.15;7.00;;;;;;;28.41;nan;97832.28;4881248;29;20057;-67
2023/08/29 00:13:33;;;;;;;18.30;7.18;;;;;;;28.41;nan;97837.75;4874305;29;20084;-66
2023/08/29 00:16:03;;;;;;;17.80;8.18;;;;;;;28.39;nan;97839.22;4878251;29;20055;-66
2023/08/29 00:18:32;;;;;;;23.92;8.40;;;;;;;28.40;nan;97844.34;4884666;29;20117;-67
2023/08/29 00:21:02;;;;;;;20.15;8.60;;;;;;;28.42;nan;97844.00;4883807;29;20448;-68
2023/08/29 00:23:32;;;;;;;23.08;7.35;;;;;;;28.41;nan;97845.13;4884360;29;20140;-67
2023/08/29 00:26:03;;;;;;;20.13;7.57;;;;;;;28.39;nan;97839.22;4890989;29;20850;-68
2023/08/29 00:28:35;;;;;;;19.25;6.72;;;;;;;28.38;nan;97852.03;4883524;29;20144;-68
2023/08/29 00:31:05;;;;;;;23.35;7.75;;;;;;;28.39;nan;97861.81;4881923;29;20083;-68
2023/08/29 00:33:34;;;;;;;22.33;8.18;;;;;;;28.39;nan;97858.28;4870877;29;20052;-67
2023/08/29 00:36:04;;;;;;;20.65;8.57;;;;;;;28.37;nan;97855.09;4871429;29;20045;-67
2023/08/29 00:38:34;;;;;;;22.08;8.65;;;;;;;28.38;nan;97857.47;4878973;29;20473;-66
2023/08/29 00:41:03;;;;;;;22.60;8.45;;;;;;;28.37;nan;97850.44;4889817;29;20127;-67
2023/08/29 00:43:33;;;;;;;24.10;9.32;;;;;;;28.40;nan;97855.22;4867752;29;20048;-66
2023/08/29 00:46:04;;;;;;;17.85;8.32;;;;;;;28.39;nan;97848.19;4889291;29;20056;-67
2023/08/29 00:48:34;;;;;;;17.48;7.43;;;;;;;28.39;nan;97845.47;4874016;29;20060;-67
2023/08/29 00:51:04;;;;;;;27.63;9.20;;;;;;;28.41;nan;97845.91;4872014;29;20045;-66
2023/08/29 00:53:35;;;;;;;22.67;8.40;;;;;;;28.43;nan;97851.84;4864045;29;20052;-67
2023/08/29 00:56:05;;;;;;;20.85;8.35;;;;;;;28.47;nan;97849.25;4882244;29;20064;-66
2023/08/29 00:58:35;;;;;;;30.48;9.68;;;;;;;28.50;nan;97852.09;4854397;29;20059;-67
2023/08/29 01:01:04;;;;;;;27.85;11.65;;;;;;;28.51;nan;97851.00;4870923;29;20060;-66
2023/08/29 01:03:34;;;;;;;21.73;8.98;;;;;;;28.56;nan;97858.19;4888111;29;20163;-66
2023/08/29 01:06:03;;;;;;;23.52;10.13;;;;;;;28.62;nan;97859.59;4873065;29;20056;-67
2023/08/29 01:08:34;;;;;;;22.50;9.60;;;;;;;28.60;nan;97856.38;4889207;29;20073;-67
2023/08/29 01:11:16;;;;;;;20.58;10.40;;;;;;;28.63;nan;97858.47;4885873;29;20075;-67
2023/08/29 01:14:00;;;;;;;33.78;11.20;;;;;;;28.64;nan;97860.03;4871320;29;20055;-67
2023/08/29 01:16:36;;;;;;;29.13;11.40;;;;;;;28.78;nan;97865.28;4873468;29;20060;-67
2023/08/29 01:19:15;;;;;;;26.92;10.82;;;;;;;28.85;nan;97868.28;4882101;29;20152;-67
2023/08/29 01:22:22;;;;;;;27.23;11.77;;;;;;;28.93;nan;97870.16;4880027;29;20143;-68
2023/08/29 01:25:13;;;;;;;22.45;11.95;;;;;;;28.97;nan;97873.81;4880634;29;20842;-67
2023/08/29 01:27:43;;;;;;;29.20;12.45;;;;;;;29.02;nan;97876.34;4889518;29;20127;-67
2023/08/29 01:30:14;;;;;;;27.63;11.75;;;;;;;29.17;nan;97885.81;4879774;29;20063;-67
2023/08/29 01:32:44;;;;;;;33.97;14.05;;;;;;;29.20;nan;97887.91;4884253;29;20084;-67
2023/08/29 01:35:15;;;;;;;25.88;13.43;;;;;;;29.27;nan;97910.78;4887776;29;20143;-66
2023/08/29 01:37:44;;;;;;;32.95;12.18;;;;;;;28.89;nan;97940.09;4878596;29;20057;-68
2023/08/29 01:40:13;;;;;;;18.10;7.35;;;;;;;28.25;nan;97955.75;4879056;29;20051;-67
2023/08/29 01:42:43;;;;;;;17.63;6.60;;;;;;;27.97;nan;97958.06;4883279;29;20545;-68
2023/08/29 01:45:12;;;;;;;19.48;6.70;;;;;;;27.86;nan;97946.69;4886188;29;20057;-68
2023/08/29 01:47:42;;;;;;;20.67;6.85;;;;;;;27.75;nan;97964.47;4876358;29;20766;-67
2023/08/29 01:50:13;;;;;;;18.67;6.47;;;;;;;27.61;nan;97978.28;4881778;29;20160;-68
2023/08/29 01:52:43;;;;;;;14.65;5.65;;;;;;;27.35;nan;97990.25;4883248;29;20155;-68
2023/08/29 01:55:12;;;;;;;15.15;5.47;;;;;;;27.32;nan;97996.28;4882386;29;20559;-68
2023/08/29 01:57:43;;;;;;;16.08;5.45;;;;;;;27.12;nan;97990.38;4883352;29;20048;-68
2023/08/29 02:00:14;;;;;;;13.52;5.10;;;;;;;27.05;nan;97998.19;4874378;29;20481;-68
2023/08/29 02:02:43;;;;;;;12.82;5.93;;;;;;;27.00;nan;98005.66;4882789;29;20104;-68
2023/08/29 02:05:13;;;;;;;15.15;6.32;;;;;;;26.74;nan;97984.63;4888053;29;20048;-68
2023/08/29 02:07:42;;;;;;;19.35;5.95;;;;;;;26.82;nan;97977.63;4867485;29;20066;-68
2023/08/29 02:10:11;;;;;;;13.77;6.50;;;;;;;26.89;nan;97974.47;4879196;29;20055;-68
2023/08/29 02:12:40;;;;;;;13.27;5.75;;;;;;;26.58;nan;97958.22;4875022;29;20060;-66
2023/08/29 02:15:10;;;;;;;15.27;5.93;;;;;;;26.54;nan;97944.47;4869638;29;20053;-68
2023/08/29 02:17:39;;;;;;;16.80;6.57;;;;;;;26.51;nan;97942.38;4872390;29;20059;-67
2023/08/29 02:20:13;;;;;;;15.13;6.15;;;;;;;26.64;nan;97955.03;4890822;29;20120;-68
2023/08/29 02:22:42;;;;;;;;;;;;;;;26.69;nan;97951.38;4888359;29;20071;-67
2023/08/29 02:25:12;;;;;;;15.27;6.75;;;;;;;26.56;nan;97938.72;4865886;29;19933;-68
2023/08/29 02:27:44;;;;;;;13.18;6.80;;;;;;;26.55;nan;97916.19;4877100;29;20162;-67
2023/08/29 02:30:14;;;;;;;17.10;7.22;;;;;;;26.60;nan;97905.16;4891804;29;20067;-68
2023/08/29 02:32:43;;;;;;;21.30;7.60;;;;;;;26.70;nan;97893.22;4879356;29;20052;-69
2023/08/29 02:35:13;;;;;;;16.83;7.25;;;;;;;26.73;nan;97892.59;4892641;29;20064;-67
2023/08/29 02:37:42;;;;;;;14.55;6.95;;;;;;;26.51;nan;97874.47;4857768;29;20068;-68
2023/08/29 02:40:12;;;;;;;14.60;7.68;;;;;;;26.44;nan;97863.28;4882639;29;20060;-67
2023/08/29 02:42:41;;;;;;;16.65;8.00;;;;;;;26.37;nan;97846.66;4875203;29;20052;-68
2023/08/29 02:45:11;;;;;;;17.92;8.93;;;;;;;26.18;nan;97816.22;4882143;29;20079;-68
2023/08/29 02:47:40;;;;;;;16.80;7.55;;;;;;;26.42;nan;97791.41;4874838;29;20131;-68
2023/08/29 02:50:09;;;;;;;17.75;8.85;;;;;;;26.40;nan;97758.31;4872161;29;20049;-68
2023/08/29 02:52:39;;;;;;;22.73;8.80;;;;;;;26.18;nan;97732.06;4868199;29;20128;-67
2023/08/29 02:55:09;;;;;;;18.88;9.13;;;;;;;26.57;nan;97676.84;4872154;29;20143;-68
2023/08/29 02:57:38;;;;;;;16.67;7.90;;;;;;;26.41;nan;97624.16;4874813;29;20052;-67
2023/08/29 03:00:10;;;;;;;21.25;8.52;;;;;;;26.47;nan;97574.75;4871148;29;20041;-68
2023/08/29 03:02:39;;;;;;;21.23;8.10;;;;;;;26.55;nan;97570.47;4865610;29;20131;-66
2023/08/29 03:05:09;;;;;;;22.45;7.90;;;;;;;26.63;nan;97575.88;4865949;29;20654;-67
2023/08/29 03:07:38;;;;;;;24.80;9.95;;;;;;;26.74;nan;97604.25;4881857;29;20056;-67
2023/08/29 03:10:08;;;;;;;26.55;10.27;;;;;;;26.92;nan;97718.38;4870516;29;20056;-67
2023/08/29 03:12:37;;;;;;;22.08;9.77;;;;;;;26.99;nan;97748.59;4870344;29;20155;-67
2023/08/29 03:15:07;;;;;;;20.92;8.90;;;;;;;27.02;nan;97758.81;4848976;29;20053;-67
2023/08/29 03:17:43;;;;;;;29.63;10.30;;;;;;;27.09;nan;97745.53;4884807;29;20060;-67
2023/08/29 03:20:15;;;;;;;22.95;9.75;;;;;;;27.18;nan;97747.09;4889745;29;20132;-67
2023/08/29 03:22:44;;;;;;;15.90;8.95;;;;;;;27.37;nan;97792.16;4889631;29;20139;-67
2023/08/29 03:25:13;;;;;;;27.15;10.10;;;;;;;27.45;nan;97823.97;4889779;29;20155;-68
2023/08/29 03:27:42;;;;;;;22.73;10.38;;;;;;;27.53;nan;97834.88;4878873;29;20556;-66
2023/08/29 03:30:12;;;;;;;23.90;9.52;;;;;;;27.62;nan;97816.59;4890512;29;20474;-67
2023/08/29 03:32:41;;;;;;;21.38;10.13;;;;;;;27.63;nan;97833.72;4873452;29;20056;-68
2023/08/29 03:35:11;;;;;;;19.98;10.65;;;;;;;27.83;nan;97840.41;4889589;29;20048;-67
2023/08/29 03:37:40;;;;;;;21.13;11.07;;;;;;;27.88;nan;97849.16;4891376;29;20071;-68
2023/08/29 03:40:10;;;;;;;23.38;11.40;;;;;;;28.10;nan;97869.97;4891704;29;20075;-67
2023/08/29 03:42:40;;;;;;;22.65;12.27;;;;;;;28.12;nan;97893.00;4887294;29;20060;-67
2023/08/29 03:45:09;;;;;;;25.92;11.10;;;;;;;28.14;nan;97914.47;4870304;29;20405;-67
2023/08/29 03:47:39;;;;;;;20.65;11.45;;;;;;;28.23;nan;97926.13;4872162;29;20052;-67
2023/08/29 03:50:09;;;;;;;35.58;12.57;;;;;;;28.36;nan;97941.47;4887268;29;20060;-68
2023/08/29 03:52:38;;;;;;;26.45;12.15;;;;;;;28.39;nan;97942.72;4887510;29;20583;-66
2023/08/29 03:55:08;;;;;;;22.40;11.23;;;;;;;28.40;nan;97927.97;4871769;29;20072;-68
2023/08/29 03:57:38;;;;;;;24.27;12.52;;;;;;;28.22;nan;97912.84;4891492;29;20057;-67
2023/08/29 04:00:10;;;;;;;19.67;10.85;;;;;;;28.14;nan;97898.13;4890315;29;20053;-68
2023/08/29 04:02:43;;;;;;;16.80;10.85;;;;;;;28.19;nan;97910.78;4887084;29;20072;-67
2023/08/29 04:05:14;;;;;;;19.77;10.25;;;;;;;28.34;nan;97907.50;4872886;29;20540;-67
2023/08/29 04:07:44;;;;;;;23.75;10.27;;;;;;;28.23;nan;97903.56;4873324;29;20052;-66
2023/08/29 04:10:13;;;;;;;19.73;9.38;;;;;;;28.22;nan;97910.91;4885599;29;20135;-67
2023/08/29 04:12:43;;;;;;;21.25;9.43;;;;;;;28.39;nan;97932.63;4871359;29;20053;-67
2023/08/29 04:15:13;;;;;;;18.25;9.00;;;;;;;28.35;nan;97945.31;4889320;29;20156;-68
2023/08/29 04:17:42;;;;;;;18.48;8.73;;;;;;;28.37;nan;97956.66;4869169;29;20072;-69
2023/08/29 04:20:12;;;;;;;15.35;8.48;;;;;;;28.28;nan;97966.78;4873095;29;20127;-69
2023/08/29 04:22:42;;;;;;;20.50;8.57;;;;;;;28.15;nan;97975.97;4870480;29;20770;-68
2023/08/29 04:25:11;;;;;;;16.85;8.32;;;;;;;28.11;nan;97983.19;4886582;29;20084;-68
2023/08/29 04:27:41;;;;;;;18.95;7.50;;;;;;;28.18;nan;97978.06;4889523;29;20066;-68
2023/08/29 04:30:11;;;;;;;23.17;7.72;;;;;;;28.20;nan;97978.50;4888150;29;20054;-69
2023/08/29 04:32:40;;;;;;;16.55;8.02;;;;;;;28.20;nan;97975.78;4867281;29;20062;-68
2023/08/29 04:35:10;;;;;;;23.83;8.27;;;;;;;28.20;nan;97975.78;4863230;29;20516;-69
2023/08/29 04:37:40;;;;;;;22.83;9.75;;;;;;;28.29;nan;97971.13;4883350;29;20060;-68
2023/08/29 04:40:10;;;;;;;21.75;9.20;;;;;;;28.46;nan;97973.78;4867002;29;20556;-71
2023/08/29 04:42:40;;;;;;;19.38;8.23;;;;;;;28.56;nan;97969.91;4870113;29;20060;-70
2023/08/29 04:45:11;;;;;;;20.25;9.10;;;;;;;28.44;nan;97967.88;4888436;29;20076;-72
2023/08/29 04:47:41;;;;;;;17.13;8.45;;;;;;;28.48;nan;97962.56;4886501;29;20062;-69
2023/08/29 04:50:10;;;;;;;17.13;7.78;;;;;;;28.84;nan;97959.38;4870738;29;20579;-70
2023/08/29 04:52:39;;;;;;;19.20;7.43;;;;;;;29.13;nan;97955.81;4866267;29;20144;-69
2023/08/29 04:55:09;;;;;;;26.52;7.90;;;;;;;29.69;nan;97962.63;4883509;29;20044;-69
2023/08/29 04:57:38;;;;;;;21.45;7.78;;;;;;;29.33;nan;97950.41;4879916;29;20057;-69
2023/08/29 05:00:09;;;;;;;26.38;7.63;;;;;;;29.47;nan;97949.34;4880993;29;20056;-69
2023/08/29 05:02:39;;;;;;;17.55;7.82;;;;;;;29.80;nan;97941.97;4869538;29;20916;-69
2023/08/29 05:05:11;;;;;;;18.73;7.45;;;;;;;29.83;nan;97944.81;4882024;29;20067;-69
2023/08/29 05:07:41;;;;;;;17.92;7.25;;;;;;;30.15;nan;97953.34;4885323;29;20064;-69
2023/08/29 05:10:13;;;;;;;24.90;8.82;;;;;;;30.59;nan;97948.97;4854682;29;20055;-69
2023/08/29 05:12:42;;;;;;;17.00;8.00;;;;;;;31.00;nan;97956.16;4885181;29;20479;-70
2023/08/29 05:15:12;;;;;;;14.88;7.15;;;;;;;30.87;nan;97951.81;4877496;29;20044;-69
2023/08/29 05:17:42;;;;;;;14.27;7.32;;;;;;;31.88;nan;97958.78;4872977;29;20075;-68
2023/08/29 05:20:11;;;;;;;19.52;7.38;;;;;;;32.29;nan;97945.78;4886910;29;20060;-69
2023/08/29 05:22:41;;;;;;;19.08;7.95;;;;;;;32.20;nan;97945.16;4864143;29;20120;-69
2023/08/29 05:25:10;;;;;;;14.48;7.45;;;;;;;31.81;nan;97941.38;4888710;29;20048;-69
2023/08/29 05:27:40;;;;;;;22.88;8.93;;;;;;;31.88;nan;97936.06;4878120;29;20056;-70
2023/08/29 05:30:10;;;;;;;20.33;7.78;;;;;;;32.20;nan;97942.41;4883867;29;20065;-71
2023/08/29 05:32:39;;;;;;;20.60;8.50;;;;;;;32.57;nan;97941.03;4873107;29;20056;-71
2023/08/29 05:35:10;;;;;;;17.63;8.05;;;;;;;32.85;nan;97938.97;4876143;29;20105;-68
2023/08/29 05:37:39;;;;;;;17.52;8.05;;;;;;;32.66;nan;97935.38;4871423;29;20048;-63
2023/08/29 05:40:09;;;;;;;18.35;7.65;;;;;;;33.21;nan;97931.56;4882983;29;20052;-64
2023/08/29 05:42:38;;;;;;;17.27;7.55;;;;;;;33.17;nan;97941.66;4875780;29;20216;-63
2023/08/29 05:45:08;;;;;;;24.42;8.98;;;;;;;33.48;nan;97927.81;4878891;29;20063;-64
2023/08/29 05:47:37;;;;;;;20.38;7.72;;;;;;;33.22;nan;97933.16;4883961;29;20067;-64
2023/08/29 05:50:08;;;;;;;17.98;9.35;;;;;;;33.33;nan;97925.91;4881031;29;20068;-64
2023/08/29 05:52:37;;;;;;;17.55;8.27;;;;;;;33.31;nan;97920.81;4873993;29;20093;-65
2023/08/29 05:55:10;;;;;;;13.43;7.85;;;;;;;32.92;nan;97914.44;4871370;29;20048;-65
2023/08/29 05:57:40;;;;;;;24.00;8.90;;;;;;;33.04;nan;97912.72;4873655;29;20056;-66
2023/08/29 06:00:12;;;;;;;17.20;7.45;;;;;;;33.29;nan;97919.56;4881934;29;20055;-66
2023/08/29 06:02:41;;;;;;;17.08;8.88;;;;;;;32.72;nan;97917.47;4875958;29;20811;-65
2023/08/29 06:05:11;;;;;;;22.02;8.80;;;;;;;33.43;nan;97925.34;4871735;29;20143;-66
2023/08/29 06:07:40;;;;;;;15.93;7.95;;;;;;;33.69;nan;97939.25;4874739;29;20048;-66
2023/08/29 06:10:09;;;;;;;20.40;7.38;;;;;;;34.01;nan;97941.81;4878727;29;20049;-66
2023/08/29 06:12:39;;;;;;;14.35;6.72;;;;;;;33.58;nan;97932.72;4882588;29;20621;-66
2023/08/29 06:15:08;;;;;;;15.48;7.38;;;;;;;33.68;nan;97934.91;4867608;29;20068;-67
2023/08/29 06:17:38;;;;;;;18.90;7.75;;;;;;;33.69;nan;97931.00;4874353;29;20485;-67
2023/08/29 06:20:08;;;;;;;17.63;6.35;;;;;;;33.63;nan;97923.41;4885165;29;20145;-67
2023/08/29 06:22:38;;;;;;;16.88;6.25;;;;;;;33.86;nan;97913.25;4883387;29;20476;-67
2023/08/29 06:25:11;;;;;;;16.15;6.93;;;;;;;33.53;nan;97904.75;4883190;29;20049;-67
2023/08/29 06:27:40;;;;;;;19.30;6.30;;;;;;;33.95;nan;97911.06;4866702;29;20049;-67
2023/08/29 06:30:13;;;;;;;15.18;6.55;;;;;;;33.58;nan;97910.75;4888850;29;20060;-66
2023/08/29 06:32:44;;;;;;;20.13;7.05;;;;;;;33.57;nan;97908.38;4871683;29;20984;-66
2023/08/29 06:35:14;;;;;;;16.35;6.30;;;;;;;33.77;nan;97913.50;4888262;29;20055;-69
2023/08/29 06:37:44;;;;;;;12.43;6.15;;;;;;;33.70;nan;97923.56;4885199;29;20048;-68
2023/08/29 06:40:14;;;;;;;12.07;5.38;;;;;;;33.63;nan;97929.69;4888456;29;20389;-68
2023/08/29 06:42:43;;;;;;;13.50;5.00;;;;;;;33.72;nan;97935.78;4887849;29;20045;-69
2023/08/29 06:45:12;;;;;;;11.82;4.80;;;;;;;33.62;nan;97932.78;4872119;29;20057;-69
2023/08/29 06:47:42;;;;;;;15.10;5.68;;;;;;;33.75;nan;97923.28;4877654;29;20057;-69
2023/08/29 06:50:12;;;;;;;15.93;5.25;;;;;;;33.63;nan;97926.94;4884093;29;20239;-69
2023/08/29 06:52:44;;;;;;;13.38;5.00;;;;;;;33.98;nan;97926.06;4885869;29;20052;-70
2023/08/29 06:55:14;;;;;;;16.73;4.60;;;;;;;34.02;nan;97932.41;4884055;29;20057;-70
2023/08/29 06:57:43;;;;;;;18.48;5.07;;;;;;;33.96;nan;97937.41;4884636;29;20085;-71
2023/08/29 07:00:13;;;;;;;13.95;5.80;;;;;;;33.42;nan;97945.72;4879069;29;20566;-69
2023/08/29 07:02:42;;;;;;;14.18;5.03;;;;;;;33.87;nan;97947.03;4885882;29;20060;-69
2023/08/29 07:05:11;;;;;;;16.00;4.95;;;;;;;33.68;nan;97942.38;4872643;29;20213;-70
2023/08/29 07:07:40;;;;;;;9.95;4.97;;;;;;;33.71;nan;97938.91;4878833;29;20056;-69
2023/08/29 07:10:10;;;;;;;11.95;4.60;;;;;;;33.78;nan;97937.06;4878191;29;20057;-70
2023/08/29 07:12:40;;;;;;;9.35;3.95;;;;;;;33.85;nan;97933.69;4884166;29;20393;-70
2023/08/29 07:15:10;;;;;;;14.52;4.95;;;;;;;33.65;nan;97930.13;4886289;29;20536;-68
2023/08/29 07:17:40;;;;;;;13.55;4.72;;;;;;;33.65;nan;97935.59;4869451;29;20632;-68
2023/08/29 07:20:11;;;;;;;12.25;4.30;;;;;;;33.82;nan;97940.69;4885728;29;20797;-67
2023/08/29 07:22:43;;;;;;;12.30;4.00;;;;;;;33.83;nan;97930.47;4880004;29;20063;-67
2023/08/29 07:25:13;;;;;;;10.32;4.20;;;;;;;33.78;nan;97936.28;4873290;29;20450;-69
2023/08/29 07:27:42;;;;;;;11.30;4.57;;;;;;;33.70;nan;97935.34;4883770;29;20052;-68
2023/08/29 07:30:14;;;;;;;9.95;4.32;;;;;;;33.80;nan;97925.72;4862723;29;20160;-68
2023/08/29 07:32:44;;;;;;;13.35;4.68;;;;;;;34.00;nan;97923.72;4867199;29;20056;-67
2023/08/29 07:35:14;;;;;;;11.00;4.25;;;;;;;33.98;nan;97937.84;4874863;29;20057;-68
2023/08/29 07:37:43;;;;;;;10.95;5.07;;;;;;;33.99;nan;97927.66;4878616;29;20556;-67
2023/08/29 07:40:13;;;;;;;11.63;4.30;;;;;;;34.04;nan;97925.38;4877299;29;20064;-67
2023/08/29 07:42:44;;;;;;;12.13;4.68;;;;;;;33.98;nan;97935.09;4878414;29;20485;-68
2023/08/29 07:45:13;;;;;;;14.98;4.15;;;;;;;33.89;nan;97934.53;4872480;29;20063;-68
2023/08/29 07:47:42;;;;;;;15.82;5.82;;;;;;;33.59;nan;97931.56;4874932;29;20049;-67
2023/08/29 07:50:13;;;;;;;15.80;5.10;;;;;;;33.64;nan;97928.53;4867055;29;20133;-69
2023/08/29 07:52:42;;;;;;;15.55;4.93;;;;;;;33.73;nan;97920.06;4878859;29;20568;-67
2023/08/29 07:55:11;;;;;;;10.15;4.88;;;;;;;33.64;nan;97920.28;4876028;29;20053;-68
2023/08/29 07:57:43;;;;;;;14.93;5.68;;;;;;;33.61;nan;97904.53;4878040;29;20056;-67
2023/08/29 08:00:16;;;;;;;9.82;4.28;;;;;;;33.50;nan;97900.78;4877106;29;20056;-67
2023/08/29 08:02:45;;;;;;;11.15;4.95;;;;;;;33.48;nan;97892.13;4881088;29;20568;-67
2023/08/29 08:05:18;;;;;;;15.48;5.50;;;;;;;33.52;nan;97884.72;4862725;29;20056;-66
2023/08/29 08:07:47;;;;;;;10.57;5.13;;;;;;;33.80;nan;97882.56;4879151;29;20056;-67
2023/08/29 08:10:18;;;;;;;12.18;4.47;;;;;;;33.84;nan;97885.38;4878456;29;20068;-66
2023/08/29 08:12:49;;;;;;;19.00;6.03;;;;;;;33.91;nan;97884.69;4878400;29;20053;-67
2023/08/29 08:15:20;;;;;;;12.48;4.80;;;;;;;33.92;nan;97878.03;4874652;29;20044;-68
2023/08/29 08:17:51;;;;;;;14.85;6.25;;;;;;;33.82;nan;97879.44;4878589;29;20045;-66
2023/08/29 08:20:20;;;;;;;14.38;6.00;;;;;;;33.71;nan;97873.75;4875253;29;20223;-66
2023/08/29 08:22:49;;;;;;;27.80;14.15;;;;;;;33.81;nan;97884.13;4539683;29;10000603;-65
2023/08/29 08:25:18;;;;;;;33.85;20.83;;;;;;;33.83;nan;97872.78;4875891;29;20407;-65
2023/08/29 08:27:48;;;;;;;31.02;14.93;;;;;;;33.83;nan;97868.09;4877396;29;20045;-66
2023/08/29 08:30:18;;;;;;;34.53;14.38;;;;;;;34.00;nan;97866.00;4876540;29;20040;-67
2023/08/29 08:32:47;;;;;;;22.52;9.73;;;;;;;33.77;nan;97855.81;4881331;29;20699;-68
2023/08/29 08:35:17;;;;;;;23.33;9.07;;;;;;;33.89;nan;97856.81;4878170;29;20148;-68
2023/08/29 08:37:46;;;;;;;19.90;7.25;;;;;;;34.00;nan;97855.00;4869882;29;20052;-68
2023/08/29 08:40:15;;;;;;;35.60;15.88;;;;;;;33.94;nan;97856.50;4885711;29;20045;-65
2023/08/29 08:42:45;;;;;;;25.20;8.48;;;;;;;33.75;nan;97847.16;4883376;29;20088;-68
2023/08/29 08:45:19;;;;;;;28.73;10.93;;;;;;;33.86;nan;97843.81;4877137;29;20063;-66
2023/08/29 08:47:49;;;;;;;20.10;9.48;;;;;;;33.89;nan;97852.09;4882912;29;20060;-68
2023/08/29 08:50:18;;;;;;;15.88;7.07;;;;;;;33.90;nan;97842.72;4879198;29;20666;-67
2023/08/29 08:52:51;;;;;;;14.25;6.80;;;;;;;34.02;nan;97833.47;4880452;29;20053;-68
2023/08/29 08:55:21;;;;;;;24.05;8.65;;;;;;;34.11;nan;97839.50;4875330;29;20056;-68
2023/08/29 08:57:52;;;;;;;17.70;7.00;;;;;;;33.93;nan;97836.47;4876918;29;20051;-67
2023/08/29 09:00:22;;;;;;;15.23;6.43;;;;;;;33.84;nan;97828.47;4879162;29;20064;-66
2023/08/29 09:02:53;;;;;;;18.83;6.50;;;;;;;33.82;nan;97825.28;4879095;29;20139;-68
2023/08/29 09:05:23;;;;;;;15.68;6.80;;;;;;;33.82;nan;97822.53;4864786;29;20048;-68
2023/08/29 09:07:52;;;;;;;23.45;8.20;;;;;;;33.97;nan;97822.78;4877073;29;20101;-68
2023/08/29 09:10:21;;;;;;;26.17;7.75;;;;;;;33.98;nan;97808.69;4878010;29;20198;-68
2023/08/29 09:12:53;;;;;;;16.98;7.80;;;;;;;34.01;nan;97807.13;4878219;29;20135;-66
2023/08/29 09:15:23;;;;;;;22.85;9.20;;;;;;;34.04;nan;97809.94;4879644;29;20124;-67
2023/08/29 09:17:54;;;;;;;18.20;7.25;;;;;;;34.08;nan;97804.53;4859271;29;20045;-65
2023/08/29 09:20:29;;;;;;;22.30;7.43;;;;;;;34.08;nan;97805.28;4880294;29;20060;-67
2023/08/29 09:23:00;;;;;;;25.90;8.02;;;;;;;34.15;nan;97796.38;4876620;29;20089;-67
2023/08/29 09:25:29;;;;;;;19.10;8.88;;;;;;;34.05;nan;97794.25;4878154;29;20053;-68
2023/08/29 09:27:59;;;;;;;22.67;8.88;;;;;;;33.89;nan;97802.66;4878146;29;20448;-68
2023/08/29 09:30:28;;;;;;;21.10;9.27;;;;;;;33.96;nan;97796.44;4871689;29;20053;-69
2023/08/29 09:33:07;;;;;;;24.77;9.13;;;;;;;34.01;nan;97793.41;4874598;29;20355;-69
2023/08/29 09:35:38;;;;;;;17.85;9.23;;;;;;;33.89;nan;97786.16;4871722;29;20064;-69
2023/08/29 09:38:10;;;;;;;22.73;11.60;;;;;;;33.93;nan;97777.97;4871572;29;20059;-67
2023/08/29 09:40:47;;;;;;;24.83;9.95;;;;;;;33.84;nan;97779.00;4867973;29;20075;-66
2023/08/29 09:43:17;;;;;;;21.38;10.48;;;;;;;33.78;nan;97779.69;4859053;29;20126;-67
2023/08/29 09:45:52;;;;;;;20.20;10.40;;;;;;;33.70;nan;97775.22;4873849;29;20044;-68
2023/08/29 09:48:22;;;;;;;38.78;11.93;;;;;;;33.71;nan;97768.56;4878451;29;20143;-67
2023/08/29 09:50:57;;;;;;;33.65;10.68;;;;;;;33.76;nan;97760.03;4874884;29;20049;-66
2023/08/29 09:53:28;;;;;;;22.95;11.77;;;;;;;33.80;nan;97763.63;4876868;29;20049;-68
2023/08/29 09:56:10;;;;;;;29.17;12.93;;;;;;;33.85;nan;97763.31;4875267;29;20056;-68
2023/08/29 09:58:40;;;;;;;37.00;13.73;;;;;;;33.85;nan;97760.56;4875206;29;20056;-68
2023/08/29 10:01:11;;;;;;;28.83;13.07;;;;;;;33.87;nan;97755.50;4878564;29;20049;-64
2023/08/29 10:03:46;;;;;;;27.80;12.82;;;;;;;33.82;nan;97759.34;4883458;29;20493;-65
2023/08/29 10:06:18;;;;;;;27.10;11.90;;;;;;;33.82;nan;97751.09;4879890;29;20052;-67
2023/08/29 10:09:01;;;;;;;25.23;11.98;;;;;;;33.80;nan;97747.94;4877181;29;20088;-66
2023/08/29 10:11:31;;;;;;;32.08;12.70;;;;;;;33.68;nan;97753.59;4880228;29;20053;-67
2023/08/29 10:14:12;;;;;;;23.30;9.55;;;;;;;33.63;nan;97753.91;4868362;29;20193;-67
2023/08/29 10:16:42;;;;;;;22.92;9.48;;;;;;;33.68;nan;97755.59;4879694;29;20059;-67
2023/08/29 10:19:13;;;;;;;20.48;10.43;;;;;;;33.68;nan;97758.34;4883322;29;20049;-67
2023/08/29 10:21:45;;;;;;;29.00;10.38;;;;;;;33.72;nan;97762.72;4880422;29;20913;-66
2023/08/29 10:24:15;;;;;;;25.02;10.25;;;;;;;33.65;nan;97759.81;4875075;29;20355;-67
2023/08/29 10:26:45;;;;;;;26.58;11.00;;;;;;;33.58;nan;97767.16;4885639;29;20481;-67
2023/08/29 10:29:14;;;;;;;18.38;10.02;;;;;;;33.62;nan;97760.56;4877069;29;20055;-66
2023/08/29 10:31:46;;;;;;;24.92;8.68;;;;;;;33.58;nan;97754.22;4867430;29;20399;-67
2023/08/29 10:34:15;;;;;;;15.93;8.45;;;;;;;33.53;nan;97753.72;4877977;29;20049;-67
2023/08/29 10:36:46;;;;;;;18.60;9.85;;;;;;;33.45;nan;97750.06;4880666;29;20056;-69
2023/08/29 10:39:15;;;;;;;23.58;9.75;;;;;;;33.47;nan;97757.91;4869804;29;20910;-70
2023/08/29 10:41:53;;;;;;;22.95;10.55;;;;;;;33.44;nan;97753.16;4879309;29;20053;-67
2023/08/29 10:44:46;;;;;;;29.38;10.45;;;;;;;33.38;nan;97760.91;4880180;29;20052;-65
2023/08/29 10:47:26;;;;;;;34.40;11.35;;;;;;;33.30;nan;97756.44;4883192;29;20059;-68
2023/08/29 10:50:02;;;;;;;20.90;9.77;;;;;;;33.33;nan;97756.50;4888279;29;20068;-70
2023/08/29 10:52:41;;;;;;;23.85;8.32;;;;;;;33.27;nan;97755.22;4863182;29;20063;-69
2023/08/29 10:55:27;;;;;;;23.65;8.23;;;;;;;33.17;nan;97753.06;4875801;29;20048;-68
2023/08/29 10:58:00;;;;;;;18.27;7.97;;;;;;;33.21;nan;97758.63;4887013;29;20066;-68
2023/08/29 11:00:51;;;;;;;25.75;8.70;;;;;;;33.16;nan;97759.72;4874399;29;20572;-67
2023/08/29 11:03:50;;;;;;;22.77;8.30;;;;;;;33.10;nan;97752.13;4889841;29;20059;-67
2023/08/29 11:06:45;;;;;;;17.77;7.32;;;;;;;33.10;nan;97752.13;4878316;29;20365;-67
2023/08/29 11:09:22;;;;;;;22.45;7.70;;;;;;;33.09;nan;97756.81;4884386;29;20536;-67
2023/08/29 11:12:15;;;;;;;33.40;9.00;;;;;;;33.06;nan;97754.00;4885584;29;20060;-68
2023/08/29 11:14:52;;;;;;;27.77;7.95;;;;;;;33.03;nan;97752.75;4882339;29;20052;-68
2023/08/29 11:17:23;;;;;;;38.97;9.00;;;;;;;32.98;nan;97750.31;4883612;29;20056;-68
2023/08/29 11:19:57;;;;;;;21.35;7.35;;;;;;;32.89;nan;97755.22;4881131;29;20476;-67
2023/08/29 11:22:30;;;;;;;24.95;7.38;;;;;;;32.89;nan;97744.25;4887093;29;20060;-68
2023/08/29 11:25:00;;;;;;;28.80;10.38;;;;;;;32.93;nan;97745.91;4882052;29;20080;-68
2023/08/29 11:27:29;;;;;;;32.88;9.18;;;;;;;32.91;nan;97747.44;4884973;29;20273;-68
2023/08/29 11:30:02;;;;;;;24.83;9.15;;;;;;;32.87;nan;97744.63;4886397;29;20517;-68
2023/08/29 11:32:52;;;;;;;18.63;7.80;;;;;;;32.86;nan;97747.72;4882132;29;20057;-68
2023/08/29 11:35:22;;;;;;;18.80;8.57;;;;;;;32.85;nan;97738.69;4880106;29;20358;-68
2023/08/29 11:37:51;;;;;;;20.52;7.85;;;;;;;32.79;nan;97742.91;4876578;29;20190;-68
2023/08/29 11:40:21;;;;;;;20.02;7.30;;;;;;;32.62;nan;97751.53;4862934;29;20120;-67
2023/08/29 11:42:54;;;;;;;21.90;8.00;;;;;;;32.59;nan;97752.22;4878955;29;20128;-68
2023/08/29 11:45:41;;;;;;;21.92;8.52;;;;;;;32.62;nan;97750.75;4878119;29;20566;-67
2023/08/29 11:48:30;;;;;;;17.70;6.95;;;;;;;32.60;nan;97753.03;4883818;29;21095;-68
2023/08/29 11:51:05;;;;;;;21.85;7.35;;;;;;;32.52;nan;97749.34;4879788;29;20525;-65
2023/08/29 11:53:37;;;;;;;23.27;6.85;;;;;;;32.53;nan;97748.97;4885241;29;20477;-65
2023/08/29 11:56:10;;;;;;;20.33;7.10;;;;;;;32.52;nan;97752.09;4879597;29;20044;-65
2023/08/29 11:58:40;;;;;;;24.25;7.32;;;;;;;32.43;nan;97755.03;4863952;29;20052;-65
2023/08/29 12:01:09;;;;;;;17.15;6.80;;;;;;;32.43;nan;97751.50;4878440;29;20132;-65